sensor_id;sensor_type;location;lat;lon;timestamp;temperature;humidity
40516;DHT22;26216;53.724;9.898;2023-09-08T00:01:39;19.70;93.20
40516;DHT22;26216;53.724;9.898;2023-09-08T00:04:05;19.70;93.30
40516;DHT22;26216;53.724;9.898;2023-09-08T00:06:31;19.60;93.20
40516;DHT22;26216;53.724;9.898;2023-09-08T00:08:57;19.60;93.20
40516;DHT22;26216;53.724;9.898;2023-09-08T00:11:23;19.60;93.20
40516;DHT22;26216;53.724;9.898;2023-09-08T00:13:49;19.60;93.10
40516;DHT22;26216;53.724;9.898;2023-09-08T00:16:16;19.50;93.10
40516;DHT22;26216;53.724;9.898;2023-09-08T00:18:41;19.50;93.10
40516;DHT22;26216;53.724;9.898;2023-09-08T00:21:07;19.50;93.00
40516;DHT22;26216;53.724;9.898;2023-09-08T00:23:33;19.40;93.00
40516;DHT22;26216;53.724;9.898;2023-09-08T00:25:59;19.40;93.10
40516;DHT22;26216;53.724;9.898;2023-09-08T00:28:25;19.40;93.10
40516;DHT22;26216;53.724;9.898;2023-09-08T00:30:51;19.30;93.50
40516;DHT22;26216;53.724;9.898;2023-09-08T00:33:16;19.30;93.20
40516;DHT22;26216;53.724;9.898;2023-09-08T00:35:48;19.30;93.30
40516;DHT22;26216;53.724;9.898;2023-09-08T00:38:14;19.20;93.30
40516;DHT22;26216;53.724;9.898;2023-09-08T00:40:40;19.20;93.20
40516;DHT22;26216;53.724;9.898;2023-09-08T00:43:06;19.20;93.30
40516;DHT22;26216;53.724;9.898;2023-09-08T00:45:32;19.20;93.30
40516;DHT22;26216;53.724;9.898;2023-09-08T00:48:00;19.20;93.30
40516;DHT22;26216;53.724;9.898;2023-09-08T00:50:26;19.10;93.30
40516;DHT22;26216;53.724;9.898;2023-09-08T00:52:52;19.10;93.30
40516;DHT22;26216;53.724;9.898;2023-09-08T00:55:18;19.00;93.30
40516;DHT22;26216;53.724;9.898;2023-09-08T00:57:44;19.00;93.30
40516;DHT22;26216;53.724;9.898;2023-09-08T01:00:10;19.00;93.40
40516;DHT22;26216;53.724;9.898;2023-09-08T01:02:37;19.00;93.40
40516;DHT22;26216;53.724;9.898;2023-09-08T01:05:03;19.00;93.40
40516;DHT22;26216;53.724;9.898;2023-09-08T01:07:30;18.90;93.30
40516;DHT22;26216;53.724;9.898;2023-09-08T01:09:57;18.90;93.30
40516;DHT22;26216;53.724;9.898;2023-09-08T01:12:28;18.90;93.30
40516;DHT22;26216;53.724;9.898;2023-09-08T01:14:54;18.90;93.40
40516;DHT22;26216;53.724;9.898;2023-09-08T01:17:20;18.90;93.20
40516;DHT22;26216;53.724;9.898;2023-09-08T01:19:47;18.80;93.30
40516;DHT22;26216;53.724;9.898;2023-09-08T01:22:40;18.80;93.30
40516;DHT22;26216;53.724;9.898;2023-09-08T01:25:23;18.80;93.30
40516;DHT22;26216;53.724;9.898;2023-09-08T01:27:54;18.80;93.20
40516;DHT22;26216;53.724;9.898;2023-09-08T01:30:23;18.70;93.20
40516;DHT22;26216;53.724;9.898;2023-09-08T01:32:50;18.70;93.20
40516;DHT22;26216;53.724;9.898;2023-09-08T01:35:16;18.60;93.20
40516;DHT22;26216;53.724;9.898;2023-09-08T01:37:45;18.60;93.20
40516;DHT22;26216;53.724;9.898;2023-09-08T01:40:12;18.60;93.30
40516;DHT22;26216;53.724;9.898;2023-09-08T01:42:38;18.60;93.30
40516;DHT22;26216;53.724;9.898;2023-09-08T01:45:05;18.60;93.30
40516;DHT22;26216;53.724;9.898;2023-09-08T01:47:31;18.60;93.30
40516;DHT22;26216;53.724;9.898;2023-09-08T01:49:57;18.50;93.20
40516;DHT22;26216;53.724;9.898;2023-09-08T01:52:23;18.50;93.20
40516;DHT22;26216;53.724;9.898;2023-09-08T01:54:49;18.50;93.20
40516;DHT22;26216;53.724;9.898;2023-09-08T01:57:15;18.40;93.20
40516;DHT22;26216;53.724;9.898;2023-09-08T01:59:41;18.40;93.20
40516;DHT22;26216;53.724;9.898;2023-09-08T02:02:07;18.40;93.20
40516;DHT22;26216;53.724;9.898;2023-09-08T02:04:33;18.40;93.10
40516;DHT22;26216;53.724;9.898;2023-09-08T02:06:58;18.40;93.10
40516;DHT22;26216;53.724;9.898;2023-09-08T02:09:32;18.30;93.10
40516;DHT22;26216;53.724;9.898;2023-09-08T02:12:02;18.30;93.20
40516;DHT22;26216;53.724;9.898;2023-09-08T02:14:28;18.30;93.10
40516;DHT22;26216;53.724;9.898;2023-09-08T02:16:54;18.20;93.30
40516;DHT22;26216;53.724;9.898;2023-09-08T02:19:20;18.20;93.10
40516;DHT22;26216;53.724;9.898;2023-09-08T02:21:46;18.20;93.10
40516;DHT22;26216;53.724;9.898;2023-09-08T02:24:12;18.20;93.10
40516;DHT22;26216;53.724;9.898;2023-09-08T02:26:41;18.20;93.10
40516;DHT22;26216;53.724;9.898;2023-09-08T02:29:07;18.20;93.10
40516;DHT22;26216;53.724;9.898;2023-09-08T02:31:34;18.10;93.10
40516;DHT22;26216;53.724;9.898;2023-09-08T02:34:00;18.10;93.10
40516;DHT22;26216;53.724;9.898;2023-09-08T02:36:26;18.10;93.10
40516;DHT22;26216;53.724;9.898;2023-09-08T02:38:55;18.00;93.10
40516;DHT22;26216;53.724;9.898;2023-09-08T02:41:22;18.00;93.10
40516;DHT22;26216;53.724;9.898;2023-09-08T02:43:48;18.00;93.20
40516;DHT22;26216;53.724;9.898;2023-09-08T02:46:14;18.00;93.20
40516;DHT22;26216;53.724;9.898;2023-09-08T02:48:41;18.00;93.20
40516;DHT22;26216;53.724;9.898;2023-09-08T02:51:06;17.90;93.20
40516;DHT22;26216;53.724;9.898;2023-09-08T02:53:32;17.90;93.20
40516;DHT22;26216;53.724;9.898;2023-09-08T02:55:59;17.90;93.20
40516;DHT22;26216;53.724;9.898;2023-09-08T02:58:26;17.90;93.30
40516;DHT22;26216;53.724;9.898;2023-09-08T03:00:52;17.90;93.40
40516;DHT22;26216;53.724;9.898;2023-09-08T03:03:19;17.80;93.30
40516;DHT22;26216;53.724;9.898;2023-09-08T03:05:45;17.80;93.30
40516;DHT22;26216;53.724;9.898;2023-09-08T03:08:11;17.70;93.30
40516;DHT22;26216;53.724;9.898;2023-09-08T03:10:37;17.70;93.40
40516;DHT22;26216;53.724;9.898;2023-09-08T03:13:04;17.70;93.40
40516;DHT22;26216;53.724;9.898;2023-09-08T03:15:30;17.70;93.50
40516;DHT22;26216;53.724;9.898;2023-09-08T03:17:56;17.70;93.60
40516;DHT22;26216;53.724;9.898;2023-09-08T03:20:24;17.70;93.70
40516;DHT22;26216;53.724;9.898;2023-09-08T03:22:51;17.60;93.70
40516;DHT22;26216;53.724;9.898;2023-09-08T03:25:17;17.60;93.80
40516;DHT22;26216;53.724;9.898;2023-09-08T03:27:43;17.60;93.90
40516;DHT22;26216;53.724;9.898;2023-09-08T03:30:09;17.60;94.00
40516;DHT22;26216;53.724;9.898;2023-09-08T03:32:36;17.50;94.00
40516;DHT22;26216;53.724;9.898;2023-09-08T03:35:03;17.60;94.20
40516;DHT22;26216;53.724;9.898;2023-09-08T03:37:30;17.50;94.20
40516;DHT22;26216;53.724;9.898;2023-09-08T03:39:56;17.50;94.40
40516;DHT22;26216;53.724;9.898;2023-09-08T03:42:22;17.50;94.40
40516;DHT22;26216;53.724;9.898;2023-09-08T03:44:47;17.50;94.50
40516;DHT22;26216;53.724;9.898;2023-09-08T03:47:13;17.50;94.50
40516;DHT22;26216;53.724;9.898;2023-09-08T03:49:39;17.50;94.60
40516;DHT22;26216;53.724;9.898;2023-09-08T03:52:05;17.50;94.50
40516;DHT22;26216;53.724;9.898;2023-09-08T03:54:31;17.50;94.60
40516;DHT22;26216;53.724;9.898;2023-09-08T03:56:57;17.40;94.60
40516;DHT22;26216;53.724;9.898;2023-09-08T03:59:23;17.40;94.70
40516;DHT22;26216;53.724;9.898;2023-09-08T04:01:49;17.40;94.80
40516;DHT22;26216;53.724;9.898;2023-09-08T04:04:15;17.40;94.80
40516;DHT22;26216;53.724;9.898;2023-09-08T04:06:41;17.40;94.90
40516;DHT22;26216;53.724;9.898;2023-09-08T04:09:07;17.40;94.90
40516;DHT22;26216;53.724;9.898;2023-09-08T04:11:33;17.40;94.90
40516;DHT22;26216;53.724;9.898;2023-09-08T04:13:59;17.40;94.90
40516;DHT22;26216;53.724;9.898;2023-09-08T04:16:26;17.40;95.00
40516;DHT22;26216;53.724;9.898;2023-09-08T04:18:51;17.30;94.90
40516;DHT22;26216;53.724;9.898;2023-09-08T04:21:17;17.40;95.00
40516;DHT22;26216;53.724;9.898;2023-09-08T04:23:43;17.40;95.10
40516;DHT22;26216;53.724;9.898;2023-09-08T04:26:09;17.40;95.00
40516;DHT22;26216;53.724;9.898;2023-09-08T04:28:35;17.30;95.00
40516;DHT22;26216;53.724;9.898;2023-09-08T04:31:00;17.30;95.10
40516;DHT22;26216;53.724;9.898;2023-09-08T04:33:26;17.30;95.20
40516;DHT22;26216;53.724;9.898;2023-09-08T04:35:52;17.30;95.20
40516;DHT22;26216;53.724;9.898;2023-09-08T04:38:18;17.30;95.30
40516;DHT22;26216;53.724;9.898;2023-09-08T04:40:45;17.30;95.50
40516;DHT22;26216;53.724;9.898;2023-09-08T04:43:12;17.30;95.50
40516;DHT22;26216;53.724;9.898;2023-09-08T04:45:38;17.30;95.60
40516;DHT22;26216;53.724;9.898;2023-09-08T04:48:04;17.30;95.70
40516;DHT22;26216;53.724;9.898;2023-09-08T04:50:30;17.30;95.80
40516;DHT22;26216;53.724;9.898;2023-09-08T04:52:56;17.30;95.80
40516;DHT22;26216;53.724;9.898;2023-09-08T04:55:22;17.30;95.90
40516;DHT22;26216;53.724;9.898;2023-09-08T04:57:48;17.30;95.90
40516;DHT22;26216;53.724;9.898;2023-09-08T05:00:15;17.40;95.90
40516;DHT22;26216;53.724;9.898;2023-09-08T05:02:41;17.40;95.90
40516;DHT22;26216;53.724;9.898;2023-09-08T05:05:07;17.40;96.20
40516;DHT22;26216;53.724;9.898;2023-09-08T05:07:33;17.40;96.30
40516;DHT22;26216;53.724;9.898;2023-09-08T05:09:59;17.40;96.30
40516;DHT22;26216;53.724;9.898;2023-09-08T05:12:24;17.40;96.30
40516;DHT22;26216;53.724;9.898;2023-09-08T05:14:50;17.40;96.50
40516;DHT22;26216;53.724;9.898;2023-09-08T05:17:23;17.50;96.50
40516;DHT22;26216;53.724;9.898;2023-09-08T05:19:49;17.50;96.50
40516;DHT22;26216;53.724;9.898;2023-09-08T05:22:14;17.50;96.60
40516;DHT22;26216;53.724;9.898;2023-09-08T05:24:40;17.60;96.50
40516;DHT22;26216;53.724;9.898;2023-09-08T05:27:06;17.60;96.50
40516;DHT22;26216;53.724;9.898;2023-09-08T05:29:32;17.60;96.50
40516;DHT22;26216;53.724;9.898;2023-09-08T05:31:58;17.70;96.60
40516;DHT22;26216;53.724;9.898;2023-09-08T05:34:24;17.70;96.40
40516;DHT22;26216;53.724;9.898;2023-09-08T05:36:50;17.70;96.40
40516;DHT22;26216;53.724;9.898;2023-09-08T05:39:16;17.80;96.40
40516;DHT22;26216;53.724;9.898;2023-09-08T05:41:44;17.80;96.60
40516;DHT22;26216;53.724;9.898;2023-09-08T05:44:10;17.90;96.50
40516;DHT22;26216;53.724;9.898;2023-09-08T05:46:36;17.90;96.40
40516;DHT22;26216;53.724;9.898;2023-09-08T05:49:02;17.90;96.40
40516;DHT22;26216;53.724;9.898;2023-09-08T05:51:28;18.00;96.60
40516;DHT22;26216;53.724;9.898;2023-09-08T05:53:54;18.00;96.60
40516;DHT22;26216;53.724;9.898;2023-09-08T05:56:19;18.00;96.60
40516;DHT22;26216;53.724;9.898;2023-09-08T05:58:46;18.10;96.60
40516;DHT22;26216;53.724;9.898;2023-09-08T06:01:12;18.10;96.60
40516;DHT22;26216;53.724;9.898;2023-09-08T06:03:38;18.10;96.60
40516;DHT22;26216;53.724;9.898;2023-09-08T06:06:04;18.20;96.60
40516;DHT22;26216;53.724;9.898;2023-09-08T06:08:30;18.30;96.70
40516;DHT22;26216;53.724;9.898;2023-09-08T06:10:56;18.30;96.70
40516;DHT22;26216;53.724;9.898;2023-09-08T06:13:21;18.40;96.80
40516;DHT22;26216;53.724;9.898;2023-09-08T06:15:47;18.40;96.80
40516;DHT22;26216;53.724;9.898;2023-09-08T06:18:13;18.50;96.70
40516;DHT22;26216;53.724;9.898;2023-09-08T06:20:48;18.50;96.60
40516;DHT22;26216;53.724;9.898;2023-09-08T06:23:14;18.60;96.60
40516;DHT22;26216;53.724;9.898;2023-09-08T06:25:41;18.70;96.50
40516;DHT22;26216;53.724;9.898;2023-09-08T06:28:07;18.70;96.40
40516;DHT22;26216;53.724;9.898;2023-09-08T06:30:33;18.70;96.40
40516;DHT22;26216;53.724;9.898;2023-09-08T06:32:58;18.80;96.40
40516;DHT22;26216;53.724;9.898;2023-09-08T06:35:26;18.80;96.40
40516;DHT22;26216;53.724;9.898;2023-09-08T06:37:52;18.90;96.40
40516;DHT22;26216;53.724;9.898;2023-09-08T06:40:18;19.00;96.50
40516;DHT22;26216;53.724;9.898;2023-09-08T06:42:43;19.00;96.50
40516;DHT22;26216;53.724;9.898;2023-09-08T06:45:09;19.10;96.50
40516;DHT22;26216;53.724;9.898;2023-09-08T06:47:35;19.20;96.60
40516;DHT22;26216;53.724;9.898;2023-09-08T06:50:01;19.20;96.50
40516;DHT22;26216;53.724;9.898;2023-09-08T06:52:28;19.30;96.60
40516;DHT22;26216;53.724;9.898;2023-09-08T06:54:53;19.40;96.60
40516;DHT22;26216;53.724;9.898;2023-09-08T06:57:20;19.50;96.70
40516;DHT22;26216;53.724;9.898;2023-09-08T06:59:46;19.60;96.70
40516;DHT22;26216;53.724;9.898;2023-09-08T07:02:12;19.60;96.50
40516;DHT22;26216;53.724;9.898;2023-09-08T07:04:38;19.70;96.40
40516;DHT22;26216;53.724;9.898;2023-09-08T07:07:04;19.80;96.40
40516;DHT22;26216;53.724;9.898;2023-09-08T07:09:34;19.90;96.30
40516;DHT22;26216;53.724;9.898;2023-09-08T07:12:01;20.00;96.30
40516;DHT22;26216;53.724;9.898;2023-09-08T07:14:27;20.10;96.20
40516;DHT22;26216;53.724;9.898;2023-09-08T07:16:53;20.20;96.30
40516;DHT22;26216;53.724;9.898;2023-09-08T07:19:18;20.20;96.40
40516;DHT22;26216;53.724;9.898;2023-09-08T07:21:44;20.40;96.40
40516;DHT22;26216;53.724;9.898;2023-09-08T07:24:10;20.50;96.30
40516;DHT22;26216;53.724;9.898;2023-09-08T07:26:36;20.60;96.30
40516;DHT22;26216;53.724;9.898;2023-09-08T07:29:05;20.70;96.30
40516;DHT22;26216;53.724;9.898;2023-09-08T07:31:31;20.80;96.20
40516;DHT22;26216;53.724;9.898;2023-09-08T07:33:56;20.90;96.20
40516;DHT22;26216;53.724;9.898;2023-09-08T07:36:22;21.00;96.20
40516;DHT22;26216;53.724;9.898;2023-09-08T07:38:48;21.10;96.10
40516;DHT22;26216;53.724;9.898;2023-09-08T07:41:14;21.30;95.90
40516;DHT22;26216;53.724;9.898;2023-09-08T07:43:40;21.40;96.00
40516;DHT22;26216;53.724;9.898;2023-09-08T07:46:07;21.50;95.90
40516;DHT22;26216;53.724;9.898;2023-09-08T07:48:33;21.60;95.80
40516;DHT22;26216;53.724;9.898;2023-09-08T07:50:58;21.80;95.90
40516;DHT22;26216;53.724;9.898;2023-09-08T07:53:28;21.90;95.60
40516;DHT22;26216;53.724;9.898;2023-09-08T07:55:54;22.00;95.60
40516;DHT22;26216;53.724;9.898;2023-09-08T07:58:21;22.10;95.60
40516;DHT22;26216;53.724;9.898;2023-09-08T08:00:46;22.30;95.50
40516;DHT22;26216;53.724;9.898;2023-09-08T08:03:12;22.40;95.30
40516;DHT22;26216;53.724;9.898;2023-09-08T08:05:38;22.50;95.10
40516;DHT22;26216;53.724;9.898;2023-09-08T08:08:04;22.70;95.00
40516;DHT22;26216;53.724;9.898;2023-09-08T08:10:30;22.80;94.90
40516;DHT22;26216;53.724;9.898;2023-09-08T08:12:57;22.90;94.80
40516;DHT22;26216;53.724;9.898;2023-09-08T08:15:35;23.00;94.70
40516;DHT22;26216;53.724;9.898;2023-09-08T08:18:01;23.20;94.30
40516;DHT22;26216;53.724;9.898;2023-09-08T08:20:27;23.30;94.00
40516;DHT22;26216;53.724;9.898;2023-09-08T08:22:52;23.50;94.00
40516;DHT22;26216;53.724;9.898;2023-09-08T08:25:21;23.50;93.80
40516;DHT22;26216;53.724;9.898;2023-09-08T08:27:47;23.70;93.90
40516;DHT22;26216;53.724;9.898;2023-09-08T08:30:13;23.80;93.70
40516;DHT22;26216;53.724;9.898;2023-09-08T08:32:39;23.90;93.30
40516;DHT22;26216;53.724;9.898;2023-09-08T08:35:05;24.00;93.50
40516;DHT22;26216;53.724;9.898;2023-09-08T08:37:30;24.10;93.30
40516;DHT22;26216;53.724;9.898;2023-09-08T08:39:56;24.20;93.30
40516;DHT22;26216;53.724;9.898;2023-09-08T08:42:22;24.30;93.40
40516;DHT22;26216;53.724;9.898;2023-09-08T08:44:48;24.50;93.00
40516;DHT22;26216;53.724;9.898;2023-09-08T08:47:16;24.60;92.90
40516;DHT22;26216;53.724;9.898;2023-09-08T08:49:46;24.70;92.40
40516;DHT22;26216;53.724;9.898;2023-09-08T08:52:14;24.80;92.20
40516;DHT22;26216;53.724;9.898;2023-09-08T08:54:41;24.90;92.10
40516;DHT22;26216;53.724;9.898;2023-09-08T08:57:11;25.00;92.00
40516;DHT22;26216;53.724;9.898;2023-09-08T08:59:38;25.10;91.70
40516;DHT22;26216;53.724;9.898;2023-09-08T09:02:05;25.20;91.60
40516;DHT22;26216;53.724;9.898;2023-09-08T09:04:31;25.30;91.70
40516;DHT22;26216;53.724;9.898;2023-09-08T09:06:57;25.40;91.60
40516;DHT22;26216;53.724;9.898;2023-09-08T09:09:24;25.60;91.70
40516;DHT22;26216;53.724;9.898;2023-09-08T09:11:50;25.70;91.40
40516;DHT22;26216;53.724;9.898;2023-09-08T09:14:17;25.80;91.40
40516;DHT22;26216;53.724;9.898;2023-09-08T09:16:43;25.90;91.30
40516;DHT22;26216;53.724;9.898;2023-09-08T09:19:10;26.00;91.00
40516;DHT22;26216;53.724;9.898;2023-09-08T09:21:47;26.10;90.60
40516;DHT22;26216;53.724;9.898;2023-09-08T09:24:14;26.20;90.30
40516;DHT22;26216;53.724;9.898;2023-09-08T09:26:41;26.30;90.50
40516;DHT22;26216;53.724;9.898;2023-09-08T09:29:13;26.40;90.40
40516;DHT22;26216;53.724;9.898;2023-09-08T09:32:05;26.50;90.10
40516;DHT22;26216;53.724;9.898;2023-09-08T09:34:32;26.70;89.50
40516;DHT22;26216;53.724;9.898;2023-09-08T09:36:58;26.80;90.30
40516;DHT22;26216;53.724;9.898;2023-09-08T09:39:25;26.90;89.70
40516;DHT22;26216;53.724;9.898;2023-09-08T09:41:56;27.00;90.10
40516;DHT22;26216;53.724;9.898;2023-09-08T09:44:23;27.10;89.40
40516;DHT22;26216;53.724;9.898;2023-09-08T09:46:52;27.20;89.10
40516;DHT22;26216;53.724;9.898;2023-09-08T09:49:19;27.30;88.50
40516;DHT22;26216;53.724;9.898;2023-09-08T09:51:47;27.40;88.80
40516;DHT22;26216;53.724;9.898;2023-09-08T09:54:14;27.50;88.60
40516;DHT22;26216;53.724;9.898;2023-09-08T09:56:41;27.60;88.60
40516;DHT22;26216;53.724;9.898;2023-09-08T09:59:13;27.60;88.40
40516;DHT22;26216;53.724;9.898;2023-09-08T10:01:40;27.70;86.70
40516;DHT22;26216;53.724;9.898;2023-09-08T10:04:08;27.80;88.00
40516;DHT22;26216;53.724;9.898;2023-09-08T10:06:35;27.90;84.80
40516;DHT22;26216;53.724;9.898;2023-09-08T10:09:04;28.00;86.00
40516;DHT22;26216;53.724;9.898;2023-09-08T10:11:38;28.10;86.40
40516;DHT22;26216;53.724;9.898;2023-09-08T10:14:07;28.20;85.80
40516;DHT22;26216;53.724;9.898;2023-09-08T10:16:39;28.20;85.10
40516;DHT22;26216;53.724;9.898;2023-09-08T10:19:09;28.30;85.60
40516;DHT22;26216;53.724;9.898;2023-09-08T10:21:46;28.40;85.60
40516;DHT22;26216;53.724;9.898;2023-09-08T10:27:10;28.60;85.90
40516;DHT22;26216;53.724;9.898;2023-09-08T10:29:37;28.70;85.50
40516;DHT22;26216;53.724;9.898;2023-09-08T10:32:05;28.80;85.70
40516;DHT22;26216;53.724;9.898;2023-09-08T10:34:33;28.90;84.60
40516;DHT22;26216;53.724;9.898;2023-09-08T10:36:59;29.10;84.80
40516;DHT22;26216;53.724;9.898;2023-09-08T10:39:35;29.10;84.60
40516;DHT22;26216;53.724;9.898;2023-09-08T10:47:26;29.40;82.70
40516;DHT22;26216;53.724;9.898;2023-09-08T10:49:56;29.50;82.10
40516;DHT22;26216;53.724;9.898;2023-09-08T10:52:24;29.60;81.40
40516;DHT22;26216;53.724;9.898;2023-09-08T10:54:52;29.60;80.90
40516;DHT22;26216;53.724;9.898;2023-09-08T10:57:23;29.60;80.50
40516;DHT22;26216;53.724;9.898;2023-09-08T11:00:03;29.70;80.70
40516;DHT22;26216;53.724;9.898;2023-09-08T11:02:40;29.80;80.10
40516;DHT22;26216;53.724;9.898;2023-09-08T11:05:12;29.80;80.30
40516;DHT22;26216;53.724;9.898;2023-09-08T11:07:43;29.90;80.40
40516;DHT22;26216;53.724;9.898;2023-09-08T11:10:10;29.90;80.30
40516;DHT22;26216;53.724;9.898;2023-09-08T11:12:37;30.00;81.10
40516;DHT22;26216;53.724;9.898;2023-09-08T11:15:06;30.10;80.40
40516;DHT22;26216;53.724;9.898;2023-09-08T11:17:38;30.20;80.50
40516;DHT22;26216;53.724;9.898;2023-09-08T11:20:08;30.20;78.80
40516;DHT22;26216;53.724;9.898;2023-09-08T11:22:37;30.30;78.80
40516;DHT22;26216;53.724;9.898;2023-09-08T11:25:07;30.30;77.80
40516;DHT22;26216;53.724;9.898;2023-09-08T11:27:34;30.40;77.80
40516;DHT22;26216;53.724;9.898;2023-09-08T11:30:00;30.50;79.00
40516;DHT22;26216;53.724;9.898;2023-09-08T11:32:33;30.50;78.20
40516;DHT22;26216;53.724;9.898;2023-09-08T11:35:07;30.60;77.00
40516;DHT22;26216;53.724;9.898;2023-09-08T11:37:39;30.70;77.50
40516;DHT22;26216;53.724;9.898;2023-09-08T11:40:07;30.70;76.40
40516;DHT22;26216;53.724;9.898;2023-09-08T11:42:41;30.80;76.10
40516;DHT22;26216;53.724;9.898;2023-09-08T11:45:18;30.90;75.40
40516;DHT22;26216;53.724;9.898;2023-09-08T11:47:47;30.90;72.70
40516;DHT22;26216;53.724;9.898;2023-09-08T11:50:15;30.90;75.70
40516;DHT22;26216;53.724;9.898;2023-09-08T11:52:46;31.00;75.00
40516;DHT22;26216;53.724;9.898;2023-09-08T11:55:14;31.10;74.50
40516;DHT22;26216;53.724;9.898;2023-09-08T11:57:42;31.10;75.20
40516;DHT22;26216;53.724;9.898;2023-09-08T12:00:09;31.10;73.90
40516;DHT22;26216;53.724;9.898;2023-09-08T12:02:38;31.20;72.40
40516;DHT22;26216;53.724;9.898;2023-09-08T12:05:04;31.20;72.70
40516;DHT22;26216;53.724;9.898;2023-09-08T12:07:30;31.30;73.60
40516;DHT22;26216;53.724;9.898;2023-09-08T12:09:57;31.30;73.90
40516;DHT22;26216;53.724;9.898;2023-09-08T12:12:25;31.30;73.80
40516;DHT22;26216;53.724;9.898;2023-09-08T12:14:52;31.30;73.90
40516;DHT22;26216;53.724;9.898;2023-09-08T12:17:20;31.50;73.60
40516;DHT22;26216;53.724;9.898;2023-09-08T12:19:50;31.50;73.00
40516;DHT22;26216;53.724;9.898;2023-09-08T12:22:16;31.60;73.00
40516;DHT22;26216;53.724;9.898;2023-09-08T12:24:57;31.60;71.70
40516;DHT22;26216;53.724;9.898;2023-09-08T12:27:23;31.70;69.60
40516;DHT22;26216;53.724;9.898;2023-09-08T12:29:54;31.70;70.70
40516;DHT22;26216;53.724;9.898;2023-09-08T12:32:20;31.70;70.80
40516;DHT22;26216;53.724;9.898;2023-09-08T12:34:46;31.70;70.10
40516;DHT22;26216;53.724;9.898;2023-09-08T12:37:12;31.70;70.70
40516;DHT22;26216;53.724;9.898;2023-09-08T12:39:39;31.70;71.10
40516;DHT22;26216;53.724;9.898;2023-09-08T12:42:05;31.80;72.00
40516;DHT22;26216;53.724;9.898;2023-09-08T12:44:31;31.90;71.70
40516;DHT22;26216;53.724;9.898;2023-09-08T12:46:57;31.90;70.80
40516;DHT22;26216;53.724;9.898;2023-09-08T12:49:24;31.90;71.20
40516;DHT22;26216;53.724;9.898;2023-09-08T12:51:50;32.00;70.00
40516;DHT22;26216;53.724;9.898;2023-09-08T12:54:18;32.00;70.30
40516;DHT22;26216;53.724;9.898;2023-09-08T12:56:44;32.00;70.10
40516;DHT22;26216;53.724;9.898;2023-09-08T12:59:12;32.00;71.00
40516;DHT22;26216;53.724;9.898;2023-09-08T13:01:39;32.10;70.70
40516;DHT22;26216;53.724;9.898;2023-09-08T13:04:07;32.10;70.60
40516;DHT22;26216;53.724;9.898;2023-09-08T13:06:34;32.10;70.30
40516;DHT22;26216;53.724;9.898;2023-09-08T13:09:01;32.20;70.60
40516;DHT22;26216;53.724;9.898;2023-09-08T13:11:28;32.20;69.90
40516;DHT22;26216;53.724;9.898;2023-09-08T13:13:54;32.20;69.60
40516;DHT22;26216;53.724;9.898;2023-09-08T13:16:20;32.20;68.50
40516;DHT22;26216;53.724;9.898;2023-09-08T13:18:48;32.30;69.00
40516;DHT22;26216;53.724;9.898;2023-09-08T13:21:18;32.30;68.70
40516;DHT22;26216;53.724;9.898;2023-09-08T13:23:44;32.30;69.40
40516;DHT22;26216;53.724;9.898;2023-09-08T13:26:10;32.30;69.70
40516;DHT22;26216;53.724;9.898;2023-09-08T13:28:36;32.40;69.50
40516;DHT22;26216;53.724;9.898;2023-09-08T13:31:02;32.40;67.60
40516;DHT22;26216;53.724;9.898;2023-09-08T13:33:28;32.40;69.00
40516;DHT22;26216;53.724;9.898;2023-09-08T13:35:55;32.50;69.50
40516;DHT22;26216;53.724;9.898;2023-09-08T13:38:22;32.50;68.40
40516;DHT22;26216;53.724;9.898;2023-09-08T13:40:48;32.50;68.60
40516;DHT22;26216;53.724;9.898;2023-09-08T13:43:17;32.50;67.80
40516;DHT22;26216;53.724;9.898;2023-09-08T13:45:43;32.50;68.40
40516;DHT22;26216;53.724;9.898;2023-09-08T13:48:10;32.50;68.30
40516;DHT22;26216;53.724;9.898;2023-09-08T13:50:38;32.50;68.80
40516;DHT22;26216;53.724;9.898;2023-09-08T13:53:07;32.50;67.50
40516;DHT22;26216;53.724;9.898;2023-09-08T13:55:33;32.60;68.20
40516;DHT22;26216;53.724;9.898;2023-09-08T13:57:59;32.60;68.00
40516;DHT22;26216;53.724;9.898;2023-09-08T14:00:26;32.60;66.40
40516;DHT22;26216;53.724;9.898;2023-09-08T14:02:52;32.60;67.30
40516;DHT22;26216;53.724;9.898;2023-09-08T14:05:20;32.60;67.60
40516;DHT22;26216;53.724;9.898;2023-09-08T14:07:46;32.60;67.70
40516;DHT22;26216;53.724;9.898;2023-09-08T14:10:13;32.70;67.30
40516;DHT22;26216;53.724;9.898;2023-09-08T14:12:38;32.70;67.30
40516;DHT22;26216;53.724;9.898;2023-09-08T14:15:08;32.80;67.20
40516;DHT22;26216;53.724;9.898;2023-09-08T14:17:34;32.70;66.70
40516;DHT22;26216;53.724;9.898;2023-09-08T14:20:00;32.80;66.90
40516;DHT22;26216;53.724;9.898;2023-09-08T14:22:26;32.80;66.50
40516;DHT22;26216;53.724;9.898;2023-09-08T14:24:53;32.80;65.50
40516;DHT22;26216;53.724;9.898;2023-09-08T14:27:20;32.80;66.20
40516;DHT22;26216;53.724;9.898;2023-09-08T14:29:46;32.80;65.30
40516;DHT22;26216;53.724;9.898;2023-09-08T14:32:12;32.80;64.60
40516;DHT22;26216;53.724;9.898;2023-09-08T14:34:39;32.80;65.50
40516;DHT22;26216;53.724;9.898;2023-09-08T14:37:06;32.80;65.10
40516;DHT22;26216;53.724;9.898;2023-09-08T14:39:33;32.80;65.00
40516;DHT22;26216;53.724;9.898;2023-09-08T14:42:00;32.80;64.50
40516;DHT22;26216;53.724;9.898;2023-09-08T14:44:27;32.90;65.00
40516;DHT22;26216;53.724;9.898;2023-09-08T14:46:53;32.90;64.00
40516;DHT22;26216;53.724;9.898;2023-09-08T14:49:21;32.80;64.10
40516;DHT22;26216;53.724;9.898;2023-09-08T14:51:47;32.90;63.90
40516;DHT22;26216;53.724;9.898;2023-09-08T14:54:13;32.80;64.20
40516;DHT22;26216;53.724;9.898;2023-09-08T14:56:52;32.80;64.10
40516;DHT22;26216;53.724;9.898;2023-09-08T14:59:21;32.80;64.40
40516;DHT22;26216;53.724;9.898;2023-09-08T15:01:48;32.80;63.60
40516;DHT22;26216;53.724;9.898;2023-09-08T15:04:17;32.80;64.00
40516;DHT22;26216;53.724;9.898;2023-09-08T15:06:43;32.80;64.30
40516;DHT22;26216;53.724;9.898;2023-09-08T15:09:10;32.80;64.50
40516;DHT22;26216;53.724;9.898;2023-09-08T15:11:36;32.80;64.50
40516;DHT22;26216;53.724;9.898;2023-09-08T15:14:04;32.80;63.70
40516;DHT22;26216;53.724;9.898;2023-09-08T15:16:30;32.80;63.80
40516;DHT22;26216;53.724;9.898;2023-09-08T15:18:56;32.80;63.70
40516;DHT22;26216;53.724;9.898;2023-09-08T15:21:23;32.70;64.20
40516;DHT22;26216;53.724;9.898;2023-09-08T15:23:53;32.80;64.40
40516;DHT22;26216;53.724;9.898;2023-09-08T15:26:19;32.70;63.70
40516;DHT22;26216;53.724;9.898;2023-09-08T15:28:45;32.80;64.40
40516;DHT22;26216;53.724;9.898;2023-09-08T15:31:16;32.80;64.30
40516;DHT22;26216;53.724;9.898;2023-09-08T15:33:42;32.80;64.20
40516;DHT22;26216;53.724;9.898;2023-09-08T15:36:09;32.80;64.30
40516;DHT22;26216;53.724;9.898;2023-09-08T15:38:36;32.70;64.10